sensor_id;sensor_type;location;lat;lon;timestamp;temperature;humidity
8563;DHT22;16392;52.508;13.468;2022-07-15T00:01:51;14.90;1.00
8563;DHT22;16392;52.508;13.468;2022-07-15T00:04:18;14.90;1.00
8563;DHT22;16392;52.508;13.468;2022-07-15T00:06:45;14.80;1.00
8563;DHT22;16392;52.508;13.468;2022-07-15T00:09:13;14.70;1.00
8563;DHT22;16392;52.508;13.468;2022-07-15T00:11:39;14.70;1.00
8563;DHT22;16392;52.508;13.468;2022-07-15T00:14:06;14.70;1.00
8563;DHT22;16392;52.508;13.468;2022-07-15T00:16:32;14.70;1.00
8563;DHT22;16392;52.508;13.468;2022-07-15T00:18:59;14.70;1.00
8563;DHT22;16392;52.508;13.468;2022-07-15T00:21:26;14.70;1.00
8563;DHT22;16392;52.508;13.468;2022-07-15T00:23:52;14.70;1.00
8563;DHT22;16392;52.508;13.468;2022-07-15T00:26:20;14.70;1.00
8563;DHT22;16392;52.508;13.468;2022-07-15T00:28:47;14.60;1.00
8563;DHT22;16392;52.508;13.468;2022-07-15T00:31:14;14.60;1.00
8563;DHT22;16392;52.508;13.468;2022-07-15T00:33:40;14.60;1.00
8563;DHT22;16392;52.508;13.468;2022-07-15T00:36:07;14.60;1.00
8563;DHT22;16392;52.508;13.468;2022-07-15T00:38:33;14.50;1.00
8563;DHT22;16392;52.508;13.468;2022-07-15T00:41:00;14.50;1.00
8563;DHT22;16392;52.508;13.468;2022-07-15T00:43:28;14.50;1.00
8563;DHT22;16392;52.508;13.468;2022-07-15T00:45:55;14.50;1.00
8563;DHT22;16392;52.508;13.468;2022-07-15T00:48:21;14.50;1.00
8563;DHT22;16392;52.508;13.468;2022-07-15T00:50:48;14.40;1.00
8563;DHT22;16392;52.508;13.468;2022-07-15T00:53:17;14.40;1.00
8563;DHT22;16392;52.508;13.468;2022-07-15T00:55:45;14.40;1.00
8563;DHT22;16392;52.508;13.468;2022-07-15T00:58:15;14.30;1.00
8563;DHT22;16392;52.508;13.468;2022-07-15T01:00:44;14.20;1.00
8563;DHT22;16392;52.508;13.468;2022-07-15T01:03:11;14.20;1.00
8563;DHT22;16392;52.508;13.468;2022-07-15T01:05:40;14.20;1.00
8563;DHT22;16392;52.508;13.468;2022-07-15T01:08:07;14.20;1.00
8563;DHT22;16392;52.508;13.468;2022-07-15T01:10:35;14.20;1.00
8563;DHT22;16392;52.508;13.468;2022-07-15T01:13:02;14.20;1.00
8563;DHT22;16392;52.508;13.468;2022-07-15T01:15:30;14.10;1.00
8563;DHT22;16392;52.508;13.468;2022-07-15T01:18:00;14.10;1.00
8563;DHT22;16392;52.508;13.468;2022-07-15T01:20:28;14.10;1.00
8563;DHT22;16392;52.508;13.468;2022-07-15T01:22:56;14.10;6.60
8563;DHT22;16392;52.508;13.468;2022-07-15T01:25:24;14.10;16.20
8563;DHT22;16392;52.508;13.468;2022-07-15T01:27:51;14.00;34.80
8563;DHT22;16392;52.508;13.468;2022-07-15T01:30:18;14.00;49.90
8563;DHT22;16392;52.508;13.468;2022-07-15T01:32:44;14.00;79.20
8563;DHT22;16392;52.508;13.468;2022-07-15T01:35:11;13.90;92.30
8563;DHT22;16392;52.508;13.468;2022-07-15T01:37:37;13.90;99.90
8563;DHT22;16392;52.508;13.468;2022-07-15T01:40:07;13.90;99.90
8563;DHT22;16392;52.508;13.468;2022-07-15T01:42:33;13.80;99.90
8563;DHT22;16392;52.508;13.468;2022-07-15T01:45:00;13.80;99.90
8563;DHT22;16392;52.508;13.468;2022-07-15T01:47:27;13.70;99.90
8563;DHT22;16392;52.508;13.468;2022-07-15T01:49:53;13.70;99.90
8563;DHT22;16392;52.508;13.468;2022-07-15T01:52:20;13.70;99.90
8563;DHT22;16392;52.508;13.468;2022-07-15T01:54:46;13.70;99.90
8563;DHT22;16392;52.508;13.468;2022-07-15T01:57:14;13.70;99.90
8563;DHT22;16392;52.508;13.468;2022-07-15T01:59:41;13.70;99.90
8563;DHT22;16392;52.508;13.468;2022-07-15T02:02:08;13.60;99.90
8563;DHT22;16392;52.508;13.468;2022-07-15T02:04:34;13.70;99.90
8563;DHT22;16392;52.508;13.468;2022-07-15T02:07:02;13.60;99.90
8563;DHT22;16392;52.508;13.468;2022-07-15T02:09:29;13.50;99.90
8563;DHT22;16392;52.508;13.468;2022-07-15T02:11:56;13.50;99.90
8563;DHT22;16392;52.508;13.468;2022-07-15T02:14:24;13.50;99.90
8563;DHT22;16392;52.508;13.468;2022-07-15T02:16:50;13.40;99.90
8563;DHT22;16392;52.508;13.468;2022-07-15T02:19:17;13.50;99.90
8563;DHT22;16392;52.508;13.468;2022-07-15T02:21:44;13.40;99.90
8563;DHT22;16392;52.508;13.468;2022-07-15T02:24:10;13.40;99.90
8563;DHT22;16392;52.508;13.468;2022-07-15T02:26:37;13.40;99.90
8563;DHT22;16392;52.508;13.468;2022-07-15T02:29:04;13.40;99.90
8563;DHT22;16392;52.508;13.468;2022-07-15T02:31:32;13.40;99.90
8563;DHT22;16392;52.508;13.468;2022-07-15T02:34:00;13.40;99.90
8563;DHT22;16392;52.508;13.468;2022-07-15T02:36:27;13.40;99.90
8563;DHT22;16392;52.508;13.468;2022-07-15T02:38:54;13.30;99.90
8563;DHT22;16392;52.508;13.468;2022-07-15T02:41:20;13.30;99.90
8563;DHT22;16392;52.508;13.468;2022-07-15T02:43:47;13.30;99.90
8563;DHT22;16392;52.508;13.468;2022-07-15T02:46:14;13.30;99.90
8563;DHT22;16392;52.508;13.468;2022-07-15T02:48:42;13.30;99.90
8563;DHT22;16392;52.508;13.468;2022-07-15T02:51:09;13.30;99.90
8563;DHT22;16392;52.508;13.468;2022-07-15T02:53:36;13.30;99.90
8563;DHT22;16392;52.508;13.468;2022-07-15T02:56:03;13.30;99.90
8563;DHT22;16392;52.508;13.468;2022-07-15T02:58:30;13.20;99.90
8563;DHT22;16392;52.508;13.468;2022-07-15T03:00:57;13.20;99.90
8563;DHT22;16392;52.508;13.468;2022-07-15T03:03:23;13.20;99.90
8563;DHT22;16392;52.508;13.468;2022-07-15T03:05:55;13.20;99.90
8563;DHT22;16392;52.508;13.468;2022-07-15T03:08:21;13.20;99.90
8563;DHT22;16392;52.508;13.468;2022-07-15T03:10:48;13.20;99.90
8563;DHT22;16392;52.508;13.468;2022-07-15T03:13:14;13.30;99.90
8563;DHT22;16392;52.508;13.468;2022-07-15T03:15:41;13.30;99.90
8563;DHT22;16392;52.508;13.468;2022-07-15T03:18:08;13.30;99.90
8563;DHT22;16392;52.508;13.468;2022-07-15T03:20:34;13.30;99.90
8563;DHT22;16392;52.508;13.468;2022-07-15T03:23:02;13.30;99.90
8563;DHT22;16392;52.508;13.468;2022-07-15T03:25:29;13.30;99.90
8563;DHT22;16392;52.508;13.468;2022-07-15T03:27:56;13.40;99.90
8563;DHT22;16392;52.508;13.468;2022-07-15T03:30:22;13.30;99.90
8563;DHT22;16392;52.508;13.468;2022-07-15T03:32:49;13.30;99.90
8563;DHT22;16392;52.508;13.468;2022-07-15T03:35:16;13.30;99.90
8563;DHT22;16392;52.508;13.468;2022-07-15T03:37:42;13.30;99.90
8563;DHT22;16392;52.508;13.468;2022-07-15T03:40:11;13.50;99.90
8563;DHT22;16392;52.508;13.468;2022-07-15T03:42:38;13.80;99.90
8563;DHT22;16392;52.508;13.468;2022-07-15T03:45:06;14.00;99.90
8563;DHT22;16392;52.508;13.468;2022-07-15T03:47:33;14.30;99.90
8563;DHT22;16392;52.508;13.468;2022-07-15T03:49:59;14.50;99.90
8563;DHT22;16392;52.508;13.468;2022-07-15T03:52:26;14.60;99.90
8563;DHT22;16392;52.508;13.468;2022-07-15T03:54:53;14.80;99.90
8563;DHT22;16392;52.508;13.468;2022-07-15T03:57:20;15.00;88.30
8563;DHT22;16392;52.508;13.468;2022-07-15T03:59:50;15.30;50.00
8563;DHT22;16392;52.508;13.468;2022-07-15T04:02:17;15.20;31.70
8563;DHT22;16392;52.508;13.468;2022-07-15T04:04:43;15.40;14.50
8563;DHT22;16392;52.508;13.468;2022-07-15T04:07:10;15.90;1.00
8563;DHT22;16392;52.508;13.468;2022-07-15T04:09:36;16.20;1.00
8563;DHT22;16392;52.508;13.468;2022-07-15T04:12:04;16.20;1.00
8563;DHT22;16392;52.508;13.468;2022-07-15T04:14:32;16.40;1.00
8563;DHT22;16392;52.508;13.468;2022-07-15T04:16:58;16.80;1.00
8563;DHT22;16392;52.508;13.468;2022-07-15T04:19:25;17.00;1.00
8563;DHT22;16392;52.508;13.468;2022-07-15T04:21:51;17.00;1.00
8563;DHT22;16392;52.508;13.468;2022-07-15T04:24:18;17.30;1.00
8563;DHT22;16392;52.508;13.468;2022-07-15T04:26:45;17.50;99.90
8563;DHT22;16392;52.508;13.468;2022-07-15T04:29:11;17.80;1.00
8563;DHT22;16392;52.508;13.468;2022-07-15T04:31:39;17.60;99.90
8563;DHT22;16392;52.508;13.468;2022-07-15T04:34:06;17.20;99.90
8563;DHT22;16392;52.508;13.468;2022-07-15T04:36:33;16.20;1.00
8563;DHT22;16392;52.508;13.468;2022-07-15T04:38:59;15.50;1.00
8563;DHT22;16392;52.508;13.468;2022-07-15T04:41:26;15.10;1.00
8563;DHT22;16392;52.508;13.468;2022-07-15T04:43:52;14.90;2.60
8563;DHT22;16392;52.508;13.468;2022-07-15T04:46:19;14.70;34.20
8563;DHT22;16392;52.508;13.468;2022-07-15T04:48:47;14.50;89.40
8563;DHT22;16392;52.508;13.468;2022-07-15T04:51:31;14.50;97.80
8563;DHT22;16392;52.508;13.468;2022-07-15T04:53:58;14.50;99.80
8563;DHT22;16392;52.508;13.468;2022-07-15T04:56:25;14.60;97.20
8563;DHT22;16392;52.508;13.468;2022-07-15T04:58:51;14.90;90.30
8563;DHT22;16392;52.508;13.468;2022-07-15T05:01:18;15.30;55.50
8563;DHT22;16392;52.508;13.468;2022-07-15T05:03:44;15.70;1.00
8563;DHT22;16392;52.508;13.468;2022-07-15T05:06:12;15.90;1.00
8563;DHT22;16392;52.508;13.468;2022-07-15T05:08:39;16.50;1.00
8563;DHT22;16392;52.508;13.468;2022-07-15T05:11:06;16.80;1.00
8563;DHT22;16392;52.508;13.468;2022-07-15T05:13:32;16.70;1.00
8563;DHT22;16392;52.508;13.468;2022-07-15T05:16:02;16.60;1.00
8563;DHT22;16392;52.508;13.468;2022-07-15T05:18:28;16.40;1.00
8563;DHT22;16392;52.508;13.468;2022-07-15T05:20:55;16.30;1.00
8563;DHT22;16392;52.508;13.468;2022-07-15T05:23:23;16.20;1.00
8563;DHT22;16392;52.508;13.468;2022-07-15T05:25:49;16.60;1.00
8563;DHT22;16392;52.508;13.468;2022-07-15T05:28:16;17.20;1.00
8563;DHT22;16392;52.508;13.468;2022-07-15T05:30:43;18.20;1.00
8563;DHT22;16392;52.508;13.468;2022-07-15T05:33:09;19.10;1.00
8563;DHT22;16392;52.508;13.468;2022-07-15T05:35:36;19.90;99.90
8563;DHT22;16392;52.508;13.468;2022-07-15T05:38:02;20.30;1.00
8563;DHT22;16392;52.508;13.468;2022-07-15T05:40:30;20.30;1.00
8563;DHT22;16392;52.508;13.468;2022-07-15T05:42:57;20.00;1.00
8563;DHT22;16392;52.508;13.468;2022-07-15T05:45:23;19.50;1.00
8563;DHT22;16392;52.508;13.468;2022-07-15T05:47:51;19.90;1.00
8563;DHT22;16392;52.508;13.468;2022-07-15T05:50:18;20.30;1.00
8563;DHT22;16392;52.508;13.468;2022-07-15T05:52:46;20.90;99.90
8563;DHT22;16392;52.508;13.468;2022-07-15T05:55:12;20.80;99.90
8563;DHT22;16392;52.508;13.468;2022-07-15T05:57:40;20.70;99.90
8563;DHT22;16392;52.508;13.468;2022-07-15T06:00:08;21.60;99.90
8563;DHT22;16392;52.508;13.468;2022-07-15T06:02:35;22.60;29.80
8563;DHT22;16392;52.508;13.468;2022-07-15T06:05:02;21.90;12.10
8563;DHT22;16392;52.508;13.468;2022-07-15T06:07:29;22.10;1.00
8563;DHT22;16392;52.508;13.468;2022-07-15T06:09:55;20.70;98.60
8563;DHT22;16392;52.508;13.468;2022-07-15T06:12:22;20.20;99.90
8563;DHT22;16392;52.508;13.468;2022-07-15T06:14:50;20.30;99.90
8563;DHT22;16392;52.508;13.468;2022-07-15T06:17:17;19.80;99.90
8563;DHT22;16392;52.508;13.468;2022-07-15T06:19:43;19.50;99.90
8563;DHT22;16392;52.508;13.468;2022-07-15T06:22:10;19.30;99.90
8563;DHT22;16392;52.508;13.468;2022-07-15T06:24:36;19.00;1.00
8563;DHT22;16392;52.508;13.468;2022-07-15T06:27:03;19.00;1.00
8563;DHT22;16392;52.508;13.468;2022-07-15T06:29:30;19.50;1.00
8563;DHT22;16392;52.508;13.468;2022-07-15T06:31:59;19.80;99.90
8563;DHT22;16392;52.508;13.468;2022-07-15T06:34:25;19.60;99.90
8563;DHT22;16392;52.508;13.468;2022-07-15T06:36:52;19.40;99.90
8563;DHT22;16392;52.508;13.468;2022-07-15T06:39:18;19.30;1.00
8563;DHT22;16392;52.508;13.468;2022-07-15T06:41:45;19.50;99.90
8563;DHT22;16392;52.508;13.468;2022-07-15T06:44:12;19.10;1.00
8563;DHT22;16392;52.508;13.468;2022-07-15T06:46:38;18.90;1.00
8563;DHT22;16392;52.508;13.468;2022-07-15T06:49:06;19.00;1.00
8563;DHT22;16392;52.508;13.468;2022-07-15T06:51:33;19.10;1.00
8563;DHT22;16392;52.508;13.468;2022-07-15T06:54:00;18.70;1.00
8563;DHT22;16392;52.508;13.468;2022-07-15T06:56:26;18.30;27.20
8563;DHT22;16392;52.508;13.468;2022-07-15T06:58:54;18.20;99.90
8563;DHT22;16392;52.508;13.468;2022-07-15T07:01:21;18.00;99.90
8563;DHT22;16392;52.508;13.468;2022-07-15T07:03:48;18.20;99.90
8563;DHT22;16392;52.508;13.468;2022-07-15T07:06:16;18.30;99.90
8563;DHT22;16392;52.508;13.468;2022-07-15T07:08:43;18.70;99.90
8563;DHT22;16392;52.508;13.468;2022-07-15T07:11:12;19.50;1.00
8563;DHT22;16392;52.508;13.468;2022-07-15T07:13:38;19.40;1.00
8563;DHT22;16392;52.508;13.468;2022-07-15T07:16:06;19.80;1.00
8563;DHT22;16392;52.508;13.468;2022-07-15T07:18:33;19.90;99.90
8563;DHT22;16392;52.508;13.468;2022-07-15T07:21:00;20.30;99.90
8563;DHT22;16392;52.508;13.468;2022-07-15T07:23:28;20.30;99.90
8563;DHT22;16392;52.508;13.468;2022-07-15T07:25:56;20.70;99.90
8563;DHT22;16392;52.508;13.468;2022-07-15T07:28:23;20.70;99.60
8563;DHT22;16392;52.508;13.468;2022-07-15T07:30:50;19.90;99.90
8563;DHT22;16392;52.508;13.468;2022-07-15T07:33:18;19.50;99.90
8563;DHT22;16392;52.508;13.468;2022-07-15T07:35:44;20.00;99.90
8563;DHT22;16392;52.508;13.468;2022-07-15T07:38:12;20.00;99.90
8563;DHT22;16392;52.508;13.468;2022-07-15T07:40:40;19.70;99.90
8563;DHT22;16392;52.508;13.468;2022-07-15T07:43:06;19.20;99.90
8563;DHT22;16392;52.508;13.468;2022-07-15T07:45:33;18.70;99.90
8563;DHT22;16392;52.508;13.468;2022-07-15T07:48:00;19.00;99.90
8563;DHT22;16392;52.508;13.468;2022-07-15T07:50:27;18.40;1.00
8563;DHT22;16392;52.508;13.468;2022-07-15T07:52:53;19.60;99.90
8563;DHT22;16392;52.508;13.468;2022-07-15T07:55:20;21.20;98.10
8563;DHT22;16392;52.508;13.468;2022-07-15T07:57:49;22.10;1.00
8563;DHT22;16392;52.508;13.468;2022-07-15T08:00:17;21.40;1.00
8563;DHT22;16392;52.508;13.468;2022-07-15T08:02:44;20.40;1.00
8563;DHT22;16392;52.508;13.468;2022-07-15T08:05:12;19.70;1.00
8563;DHT22;16392;52.508;13.468;2022-07-15T08:07:40;19.10;99.90
8563;DHT22;16392;52.508;13.468;2022-07-15T08:10:08;18.80;99.90
8563;DHT22;16392;52.508;13.468;2022-07-15T08:12:35;18.70;99.90
8563;DHT22;16392;52.508;13.468;2022-07-15T08:15:06;18.70;99.90
8563;DHT22;16392;52.508;13.468;2022-07-15T08:17:33;18.70;99.90
8563;DHT22;16392;52.508;13.468;2022-07-15T08:20:00;19.90;11.30
8563;DHT22;16392;52.508;13.468;2022-07-15T08:22:26;19.80;1.00
8563;DHT22;16392;52.508;13.468;2022-07-15T08:24:53;19.30;1.00
8563;DHT22;16392;52.508;13.468;2022-07-15T08:27:20;18.90;3.10
8563;DHT22;16392;52.508;13.468;2022-07-15T08:29:46;19.60;1.00
8563;DHT22;16392;52.508;13.468;2022-07-15T08:32:14;20.30;1.00
8563;DHT22;16392;52.508;13.468;2022-07-15T08:34:41;20.20;1.00
8563;DHT22;16392;52.508;13.468;2022-07-15T08:37:08;19.90;1.00
8563;DHT22;16392;52.508;13.468;2022-07-15T08:39:35;19.50;1.00
8563;DHT22;16392;52.508;13.468;2022-07-15T08:42:03;19.10;17.50
8563;DHT22;16392;52.508;13.468;2022-07-15T08:44:30;19.40;14.10
8563;DHT22;16392;52.508;13.468;2022-07-15T08:47:01;19.80;1.00
8563;DHT22;16392;52.508;13.468;2022-07-15T08:49:31;20.30;1.00
8563;DHT22;16392;52.508;13.468;2022-07-15T08:52:00;20.80;1.00
8563;DHT22;16392;52.508;13.468;2022-07-15T08:54:28;20.60;1.00
8563;DHT22;16392;52.508;13.468;2022-07-15T08:56:55;20.50;1.00
8563;DHT22;16392;52.508;13.468;2022-07-15T08:59:23;20.20;1.00
8563;DHT22;16392;52.508;13.468;2022-07-15T09:01:50;19.80;1.00
8563;DHT22;16392;52.508;13.468;2022-07-15T09:04:17;19.60;1.00
8563;DHT22;16392;52.508;13.468;2022-07-15T09:06:47;19.50;1.00
8563;DHT22;16392;52.508;13.468;2022-07-15T09:09:25;19.40;1.00
8563;DHT22;16392;52.508;13.468;2022-07-15T09:11:54;19.60;1.00
8563;DHT22;16392;52.508;13.468;2022-07-15T09:14:21;19.60;1.00
8563;DHT22;16392;52.508;13.468;2022-07-15T09:16:48;19.70;1.00
8563;DHT22;16392;52.508;13.468;2022-07-15T09:19:14;19.50;1.00
8563;DHT22;16392;52.508;13.468;2022-07-15T09:21:42;19.80;1.00
8563;DHT22;16392;52.508;13.468;2022-07-15T09:24:18;19.80;1.00
8563;DHT22;16392;52.508;13.468;2022-07-15T09:26:45;19.80;1.00
8563;DHT22;16392;52.508;13.468;2022-07-15T09:29:14;19.80;1.00
8563;DHT22;16392;52.508;13.468;2022-07-15T09:31:56;19.80;1.00
8563;DHT22;16392;52.508;13.468;2022-07-15T09:34:59;20.00;1.00
8563;DHT22;16392;52.508;13.468;2022-07-15T09:37:26;20.10;1.00
8563;DHT22;16392;52.508;13.468;2022-07-15T09:39:56;20.10;1.00
8563;DHT22;16392;52.508;13.468;2022-07-15T09:42:23;20.30;1.00
8563;DHT22;16392;52.508;13.468;2022-07-15T09:44:50;20.50;1.00
8563;DHT22;16392;52.508;13.468;2022-07-15T09:47:18;20.40;1.00
8563;DHT22;16392;52.508;13.468;2022-07-15T09:49:46;20.40;1.00
8563;DHT22;16392;52.508;13.468;2022-07-15T09:52:14;20.50;1.00
8563;DHT22;16392;52.508;13.468;2022-07-15T09:54:43;20.30;1.00
8563;DHT22;16392;52.508;13.468;2022-07-15T09:57:13;20.30;1.00
8563;DHT22;16392;52.508;13.468;2022-07-15T09:59:41;20.80;1.00
8563;DHT22;16392;52.508;13.468;2022-07-15T10:02:07;21.70;1.00
8563;DHT22;16392;52.508;13.468;2022-07-15T10:04:35;21.70;1.00
8563;DHT22;16392;52.508;13.468;2022-07-15T10:07:01;22.20;1.00
8563;DHT22;16392;52.508;13.468;2022-07-15T10:09:31;21.70;1.00
8563;DHT22;16392;52.508;13.468;2022-07-15T10:12:02;22.80;1.00
8563;DHT22;16392;52.508;13.468;2022-07-15T10:14:51;22.80;1.00
8563;DHT22;16392;52.508;13.468;2022-07-15T10:17:50;22.10;1.00
8563;DHT22;16392;52.508;13.468;2022-07-15T10:26:32;22.10;1.00
8563;DHT22;16392;52.508;13.468;2022-07-15T10:29:07;22.30;1.00
8563;DHT22;16392;52.508;13.468;2022-07-15T10:31:38;22.30;1.00
8563;DHT22;16392;52.508;13.468;2022-07-15T10:34:19;22.50;1.00
8563;DHT22;16392;52.508;13.468;2022-07-15T10:37:04;21.90;1.00
8563;DHT22;16392;52.508;13.468;2022-07-15T10:39:50;21.70;1.00
8563;DHT22;16392;52.508;13.468;2022-07-15T10:42:18;21.40;1.00
8563;DHT22;16392;52.508;13.468;2022-07-15T10:47:32;21.60;1.00
8563;DHT22;16392;52.508;13.468;2022-07-15T10:49:59;21.90;1.00
8563;DHT22;16392;52.508;13.468;2022-07-15T10:52:28;21.80;1.00
8563;DHT22;16392;52.508;13.468;2022-07-15T10:55:03;21.40;1.00
8563;DHT22;16392;52.508;13.468;2022-07-15T10:57:51;20.90;1.00
8563;DHT22;16392;52.508;13.468;2022-07-15T11:00:28;20.50;1.00
8563;DHT22;16392;52.508;13.468;2022-07-15T11:03:05;20.30;1.00
8563;DHT22;16392;52.508;13.468;2022-07-15T11:05:34;20.30;1.00
8563;DHT22;16392;52.508;13.468;2022-07-15T11:11:47;21.00;1.00
8563;DHT22;16392;52.508;13.468;2022-07-15T11:14:40;21.70;1.00
8563;DHT22;16392;52.508;13.468;2022-07-15T11:17:08;23.40;1.00
8563;DHT22;16392;52.508;13.468;2022-07-15T11:19:36;23.10;1.00
8563;DHT22;16392;52.508;13.468;2022-07-15T11:22:04;22.60;1.00
8563;DHT22;16392;52.508;13.468;2022-07-15T11:24:31;22.30;1.00
8563;DHT22;16392;52.508;13.468;2022-07-15T11:27:00;21.80;1.00
8563;DHT22;16392;52.508;13.468;2022-07-15T11:29:40;22.30;1.00
8563;DHT22;16392;52.508;13.468;2022-07-15T11:32:07;22.20;1.00
8563;DHT22;16392;52.508;13.468;2022-07-15T11:34:42;22.50;1.00
8563;DHT22;16392;52.508;13.468;2022-07-15T11:37:10;22.40;1.00
8563;DHT22;16392;52.508;13.468;2022-07-15T11:39:38;22.00;1.00
8563;DHT22;16392;52.508;13.468;2022-07-15T11:42:05;21.80;1.00
8563;DHT22;16392;52.508;13.468;2022-07-15T11:44:50;21.40;1.00
8563;DHT22;16392;52.508;13.468;2022-07-15T11:47:17;21.50;1.00
8563;DHT22;16392;52.508;13.468;2022-07-15T11:49:46;21.40;1.00
8563;DHT22;16392;52.508;13.468;2022-07-15T11:52:22;21.40;1.00
8563;DHT22;16392;52.508;13.468;2022-07-15T11:54:49;20.90;1.00
8563;DHT22;16392;52.508;13.468;2022-07-15T11:57:16;20.70;1.00
8563;DHT22;16392;52.508;13.468;2022-07-15T11:59:51;20.90;1.00
8563;DHT22;16392;52.508;13.468;2022-07-15T12:02:18;21.00;1.00
8563;DHT22;16392;52.508;13.468;2022-07-15T12:04:46;21.50;1.00
8563;DHT22;16392;52.508;13.468;2022-07-15T12:07:13;21.90;1.00
8563;DHT22;16392;52.508;13.468;2022-07-15T12:09:40;21.60;1.00
8563;DHT22;16392;52.508;13.468;2022-07-15T12:12:07;21.60;1.00
8563;DHT22;16392;52.508;13.468;2022-07-15T12:14:35;21.40;1.00
8563;DHT22;16392;52.508;13.468;2022-07-15T12:17:02;21.10;1.00
8563;DHT22;16392;52.508;13.468;2022-07-15T12:19:31;21.30;1.00
8563;DHT22;16392;52.508;13.468;2022-07-15T12:22:04;21.50;1.00
8563;DHT22;16392;52.508;13.468;2022-07-15T12:24:38;21.80;1.00
8563;DHT22;16392;52.508;13.468;2022-07-15T12:27:05;22.00;1.00
8563;DHT22;16392;52.508;13.468;2022-07-15T12:29:33;21.90;1.00
8563;DHT22;16392;52.508;13.468;2022-07-15T12:32:02;21.90;1.00
8563;DHT22;16392;52.508;13.468;2022-07-15T12:34:57;21.60;1.00
8563;DHT22;16392;52.508;13.468;2022-07-15T12:37:30;22.40;1.00
8563;DHT22;16392;52.508;13.468;2022-07-15T12:40:14;22.90;1.00
8563;DHT22;16392;52.508;13.468;2022-07-15T12:42:47;22.80;1.00
8563;DHT22;16392;52.508;13.468;2022-07-15T12:45:16;22.30;1.00
8563;DHT22;16392;52.508;13.468;2022-07-15T12:47:59;22.20;1.00
8563;DHT22;16392;52.508;13.468;2022-07-15T12:50:26;21.60;1.00
8563;DHT22;16392;52.508;13.468;2022-07-15T12:52:55;21.30;1.00
8563;DHT22;16392;52.508;13.468;2022-07-15T12:55:24;20.90;1.00
8563;DHT22;16392;52.508;13.468;2022-07-15T12:58:02;20.90;1.00
8563;DHT22;16392;52.508;13.468;2022-07-15T13:00:29;21.10;1.00
8563;DHT22;16392;52.508;13.468;2022-07-15T13:03:02;21.20;1.00
8563;DHT22;16392;52.508;13.468;2022-07-15T13:05:31;21.20;1.00
8563;DHT22;16392;52.508;13.468;2022-07-15T13:07:59;21.20;1.00
8563;DHT22;16392;52.508;13.468;2022-07-15T13:10:28;21.10;1.00
8563;DHT22;16392;52.508;13.468;2022-07-15T13:12:55;21.70;1.00
8563;DHT22;16392;52.508;13.468;2022-07-15T13:15:22;22.10;1.00
8563;DHT22;16392;52.508;13.468;2022-07-15T13:17:48;22.20;1.00
8563;DHT22;16392;52.508;13.468;2022-07-15T13:20:15;22.80;1.00
8563;DHT22;16392;52.508;13.468;2022-07-15T13:22:42;22.40;1.00
8563;DHT22;16392;52.508;13.468;2022-07-15T13:25:10;22.30;1.00
8563;DHT22;16392;52.508;13.468;2022-07-15T13:27:38;22.20;1.00
8563;DHT22;16392;52.508;13.468;2022-07-15T13:30:06;21.70;1.00
8563;DHT22;16392;52.508;13.468;2022-07-15T13:32:33;21.50;1.00
8563;DHT22;16392;52.508;13.468;2022-07-15T13:35:00;21.60;1.00
8563;DHT22;16392;52.508;13.468;2022-07-15T13:37:27;21.50;1.00
8563;DHT22;16392;52.508;13.468;2022-07-15T13:39:53;21.40;1.00
8563;DHT22;16392;52.508;13.468;2022-07-15T13:42:21;21.80;1.00
8563;DHT22;16392;52.508;13.468;2022-07-15T13:44:50;22.20;1.00
8563;DHT22;16392;52.508;13.468;2022-07-15T13:47:17;22.50;1.00
8563;DHT22;16392;52.508;13.468;2022-07-15T13:49:43;22.40;1.00
8563;DHT22;16392;52.508;13.468;2022-07-15T13:52:27;22.00;1.00
8563;DHT22;16392;52.508;13.468;2022-07-15T13:54:54;22.20;1.00
8563;DHT22;16392;52.508;13.468;2022-07-15T13:57:22;22.40;1.00
8563;DHT22;16392;52.508;13.468;2022-07-15T13:59:49;22.00;1.00
8563;DHT22;16392;52.508;13.468;2022-07-15T14:02:16;21.70;1.00
8563;DHT22;16392;52.508;13.468;2022-07-15T14:04:43;21.60;1.00
8563;DHT22;16392;52.508;13.468;2022-07-15T14:07:09;21.50;1.00
8563;DHT22;16392;52.508;13.468;2022-07-15T14:09:37;21.10;1.00
8563;DHT22;16392;52.508;13.468;2022-07-15T14:12:04;21.00;1.00
8563;DHT22;16392;52.508;13.468;2022-07-15T14:14:33;20.70;1.00
8563;DHT22;16392;52.508;13.468;2022-07-15T14:16:59;20.80;1.00
8563;DHT22;16392;52.508;13.468;2022-07-15T14:19:26;21.00;1.00
8563;DHT22;16392;52.508;13.468;2022-07-15T14:21:53;21.30;1.00
8563;DHT22;16392;52.508;13.468;2022-07-15T14:24:20;21.20;1.00
8563;DHT22;16392;52.508;13.468;2022-07-15T14:26:47;21.50;1.00
8563;DHT22;16392;52.508;13.468;2022-07-15T14:29:14;21.20;1.00
8563;DHT22;16392;52.508;13.468;2022-07-15T14:31:42;21.10;1.00
8563;DHT22;16392;52.508;13.468;2022-07-15T14:34:08;21.10;1.00
8563;DHT22;16392;52.508;13.468;2022-07-15T14:36:35;21.30;1.00
8563;DHT22;16392;52.508;13.468;2022-07-15T14:39:02;21.60;1.00
8563;DHT22;16392;52.508;13.468;2022-07-15T14:41:29;21.80;1.00
8563;DHT22;16392;52.508;13.468;2022-07-15T14:43:56;22.20;1.00
8563;DHT22;16392;52.508;13.468;2022-07-15T14:46:23;22.60;1.00
8563;DHT22;16392;52.508;13.468;2022-07-15T14:48:51;23.10;1.00
8563;DHT22;16392;52.508;13.468;2022-07-15T14:51:17;23.00;1.00
8563;DHT22;16392;52.508;13.468;2022-07-15T14:53:44;23.00;1.00
8563;DHT22;16392;52.508;13.468;2022-07-15T14:56:11;22.70;1.00
8563;DHT22;16392;52.508;13.468;2022-07-15T14:58:38;22.60;1.00
8563;DHT22;16392;52.508;13.468;2022-07-15T15:01:06;22.50;1.00
8563;DHT22;16392;52.508;13.468;2022-07-15T15:03:33;22.20;1.00
8563;DHT22;16392;52.508;13.468;2022-07-15T15:06:01;21.90;1.00
8563;DHT22;16392;52.508;13.468;2022-07-15T15:08:27;22.00;1.00
8563;DHT22;16392;52.508;13.468;2022-07-15T15:10:54;22.00;1.00
8563;DHT22;16392;52.508;13.468;2022-07-15T15:13:21;21.90;1.00
8563;DHT22;16392;52.508;13.468;2022-07-15T15:15:48;21.90;1.00
8563;DHT22;16392;52.508;13.468;2022-07-15T15:18:15;21.80;1.00
8563;DHT22;16392;52.508;13.468;2022-07-15T15:20:42;21.40;1.00
8563;DHT22;16392;52.508;13.468;2022-07-15T15:23:10;21.40;1.00
8563;DHT22;16392;52.508;13.468;2022-07-15T15:25:36;21.20;1.00
8563;DHT22;16392;52.508;13.468;2022-07-15T15:28:21;21.10;1.00
8563;DHT22;16392;52.508;13.468;2022-07-15T15:30:48;20.90;1.00
8563;DHT22;16392;52.508;13.468;2022-07-15T15:33:14;21.00;1.00
8563;DHT22;16392;52.508;13.468;2022-07-15T15:35:41;21.20;1.00
8563;DHT22;16392;52.508;13.468;2022-07-15T15:38:09;21.40;1.00
8563;DHT22;16392;52.508;13.468;2022-07-15T15:40:36;21.50;1.00
8563;DHT22;16392;52.508;13.468;2022-07-15T15:43:03;21.10;1.00
8563;DHT22;16392;52.508;13.468;2022-07-15T15:45:30;20.90;1.00
8563;DHT22;16392;52.508;13.468;2022-07-15T15:47:57;20.70;1.00
8563;DHT22;16392;52.508;13.468;2022-07-15T15:50:23;20.70;1.00
8563;DHT22;16392;52.508;13.468;2022-07-15T15:52:50;20.70;1.00
8563;DHT22;16392;52.508;13.468;2022-07-15T15:55:19;20.30;1.00
8563;DHT22;16392;52.508;13.468;2022-07-15T15:57:45;20.40;1.00
8563;DHT22;16392;52.508;13.468;2022-07-15T16:00:13;20.60;1.00
8563;DHT22;16392;52.508;13.468;2022-07-15T16:02:40;20.70;1.00